Time,TemperatureF,DewpointF,PressureIn,WindDirection,WindDirectionDegrees,WindSpeedMPH,WindSpeedGustMPH,Humidity,HourlyPrecipIn,Conditions,Clouds,dailyrainin,SoftwareType,DateUTC
2013-08-20 00:01:00,75.6,69.0,30.10,NNE,25,4.0,4.0,80,0.00,FEW,,0.00,WeatherDisplay:10.37,2013-08-19 22:01:00,
2013-08-20 00:06:00,75.5,68.2,30.10,North,8,3.5,3.5,78,0.00,FEW,,0.00,WeatherDisplay:10.37,2013-08-19 22:06:00,
2013-08-20 00:11:00,75.5,68.2,30.10,NNW,345,5.0,5.0,78,0.00,FEW,,0.00,WeatherDisplay:10.37,2013-08-19 22:11:00,
2013-08-20 00:16:00,75.6,67.5,30.10,NNW,347,4.6,4.6,76,0.00,FEW,,0.00,WeatherDisplay:10.37,2013-08-19 22:16:00,
2013-08-20 00:21:00,75.8,68.4,30.09,NNW,348,5.8,5.8,78,0.00,FEW,,0.00,WeatherDisplay:10.37,2013-08-19 22:21:00,
2013-08-20 00:26:00,75.7,68.7,30.09,NNW,345,5.8,5.8,79,0.00,FEW,,0.00,WeatherDisplay:10.37,2013-08-19 22:26:00,
2013-08-20 00:31:00,75.6,69.0,30.10,North,354,5.8,5.8,80,0.00,FEW,,0.00,WeatherDisplay:10.37,2013-08-19 22:31:00,
2013-08-20 00:36:00,75.2,66.7,30.09,North,4,5.8,5.8,75,0.00,FEW,,0.00,WeatherDisplay:10.37,2013-08-19 22:36:00,
2013-08-20 00:41:00,75.6,65.9,30.10,North,4,6.0,6.0,72,0.00,FEW,,0.00,WeatherDisplay:10.37,2013-08-19 22:41:00,
2013-08-20 00:46:00,76.0,65.9,30.10,North,4,6.9,6.9,71,0.00,FEW,,0.00,WeatherDisplay:10.37,2013-08-19 22:46:00,
2013-08-20 00:51:00,76.2,66.9,30.10,North,11,6.9,6.9,73,0.00,FEW,,0.00,WeatherDisplay:10.37,2013-08-19 22:51:00,
2013-08-20 00:56:00,76.0,67.1,30.10,North,8,6.9,6.9,74,0.00,FEW,,0.00,WeatherDisplay:10.37,2013-08-19 22:56:00,
2013-08-20 01:01:00,75.9,67.0,30.10,NNE,27,5.8,5.8,74,0.00,FEW,,0.00,WeatherDisplay:10.37,2013-08-19 23:01:00,
2013-08-20 01:06:00,75.8,66.9,30.10,NNE,18,8.0,8.0,74,0.00,FEW,,0.00,WeatherDisplay:10.37,2013-08-19 23:06:00,
2013-08-20 01:11:00,76.0,66.7,30.10,NE,54,6.9,6.9,73,0.00,FEW,,0.00,WeatherDisplay:10.37,2013-08-19 23:11:00,
2013-08-20 01:16:00,76.1,66.8,30.10,NE,54,8.1,8.1,73,0.00,FEW,,0.00,WeatherDisplay:10.37,2013-08-19 23:16:00,
2013-08-20 01:21:00,76.2,67.7,30.10,NE,39,11.5,11.5,75,0.00,FEW,,0.00,WeatherDisplay:10.37,2013-08-19 23:21:00,
2013-08-20 01:26:00,76.2,68.1,30.10,NE,52,11.5,11.5,76,0.00,FEW,,0.00,WeatherDisplay:10.37,2013-08-19 23:26:00,
2013-08-20 01:31:00,76.2,68.5,30.10,NE,45,10.4,10.4,77,0.00,FEW,,0.00,WeatherDisplay:10.37,2013-08-19 23:31:00,
2013-08-20 01:36:00,76.3,68.9,30.10,ENE,66,10.0,10.0,78,0.00,FEW,,0.00,WeatherDisplay:10.37,2013-08-19 23:36:00,
2013-08-20 01:41:00,76.3,68.9,30.10,NE,55,9.2,9.2,78,0.00,FEW,,0.00,WeatherDisplay:10.37,2013-08-19 23:41:00,
2013-08-20 01:46:00,76.2,69.2,30.10,ENE,75,10.4,10.4,79,0.00,FEW,,0.00,WeatherDisplay:10.37,2013-08-19 23:46:00,
2013-08-20 01:51:00,76.1,69.1,30.10,NE,41,10.4,10.4,79,0.00,FEW,,0.00,WeatherDisplay:10.37,2013-08-19 23:51:00,
2013-08-20 01:56:00,76.1,69.1,30.10,NNE,25,9.2,9.2,79,0.00,FEW,,0.00,WeatherDisplay:10.37,2013-08-19 23:56:00,
2013-08-20 02:01:00,75.9,69.3,30.11,NNE,31,9.2,9.2,80,0.00,FEW,,0.00,WeatherDisplay:10.37,2013-08-20 00:01:00,
2013-08-20 02:06:00,75.9,69.6,30.11,NNE,16,12.7,12.7,81,0.00,FEW,,0.00,WeatherDisplay:10.37,2013-08-20 00:06:00,
2013-08-20 02:11:00,75.8,69.6,30.11,North,359,8.1,8.1,81,0.00,FEW,,0.00,WeatherDisplay:10.37,2013-08-20 00:11:00,
2013-08-20 02:16:00,75.7,69.5,30.10,NE,39,9.2,9.2,81,0.00,FEW,,0.00,WeatherDisplay:10.37,2013-08-20 00:16:00,
2013-08-20 02:21:00,75.7,69.1,30.10,NNE,21,12.7,12.7,80,0.00,FEW,,0.00,WeatherDisplay:10.37,2013-08-20 00:21:00,
2013-08-20 02:26:00,75.6,68.6,30.10,NE,52,12.7,12.7,79,0.00,FEW,,0.00,WeatherDisplay:10.37,2013-08-20 00:26:00,
2013-08-20 02:31:00,75.6,68.3,30.10,NE,50,9.2,9.2,78,0.00,FEW,,0.00,WeatherDisplay:10.37,2013-08-20 00:31:00,
2013-08-20 02:36:00,75.8,67.7,30.10,NNE,29,13.8,13.8,76,0.00,FEW,,0.00,WeatherDisplay:10.37,2013-08-20 00:36:00,
2013-08-20 02:41:00,75.8,67.3,30.10,NNE,19,11.5,11.5,75,0.00,FEW,,0.00,WeatherDisplay:10.37,2013-08-20 00:41:00,
2013-08-20 02:46:00,75.8,67.3,30.10,NE,35,13.8,13.8,75,0.00,FEW,,0.00,WeatherDisplay:10.37,2013-08-20 00:46:00,
2013-08-20 02:51:00,75.9,67.0,30.10,NE,37,15.0,15.0,74,0.00,FEW,,0.00,WeatherDisplay:10.37,2013-08-20 00:51:00,
2013-08-20 02:56:00,75.9,67.0,30.10,NE,41,10.4,10.4,74,0.00,FEW,,0.00,WeatherDisplay:10.37,2013-08-20 00:56:00,
2013-08-20 03:01:00,75.8,67.3,30.10,NE,43,9.2,9.2,75,0.00,FEW,,0.00,WeatherDisplay:10.37,2013-08-20 01:01:00,
2013-08-20 03:06:00,75.8,67.3,30.10,NE,39,10.4,10.4,75,0.00,FEW,,0.00,WeatherDisplay:10.37,2013-08-20 01:06:00,
2013-08-20 03:11:00,75.8,67.3,30.10,ENE,67,12.7,12.7,75,0.00,FEW,,0.00,WeatherDisplay:10.37,2013-08-20 01:11:00,
2013-08-20 03:16:00,75.6,67.5,30.10,NNE,31,13.0,13.0,76,0.00,FEW,,0.00,WeatherDisplay:10.37,2013-08-20 01:16:00,
2013-08-20 03:21:00,75.5,67.4,30.10,NE,37,12.0,12.0,76,0.00,FEW,,0.00,WeatherDisplay:10.37,2013-08-20 01:21:00,
2013-08-20 03:26:00,75.5,67.8,30.10,ENE,75,11.5,11.5,77,0.00,FEW,,0.00,WeatherDisplay:10.37,2013-08-20 01:26:00,
2013-08-20 03:31:00,75.4,67.7,30.10,NNE,27,8.1,8.1,77,0.00,FEW,,0.00,WeatherDisplay:10.37,2013-08-20 01:31:00,
2013-08-20 03:36:00,75.3,67.6,30.10,ENE,58,11.0,11.0,77,0.00,FEW,,0.00,WeatherDisplay:10.37,2013-08-20 01:36:00,
2013-08-20 03:41:00,75.4,67.7,30.10,East,91,9.2,9.2,77,0.00,FEW,,0.00,WeatherDisplay:10.37,2013-08-20 01:41:00,
2013-08-20 03:46:00,75.4,67.7,30.10,NNE,18,6.0,6.0,77,0.00,FEW,,0.00,WeatherDisplay:10.37,2013-08-20 01:46:00,
2013-08-20 03:51:00,75.4,67.7,30.10,North,4,10.4,10.4,77,0.00,FEW,,0.00,WeatherDisplay:10.37,2013-08-20 01:51:00,
2013-08-20 03:56:00,75.4,68.1,30.10,NE,37,12.0,12.0,78,0.00,FEW,,0.00,WeatherDisplay:10.37,2013-08-20 01:56:00,
2013-08-20 04:01:00,75.4,68.1,30.10,NE,42,11.5,11.5,78,0.00,FEW,,0.00,WeatherDisplay:10.37,2013-08-20 02:01:00,
2013-08-20 04:06:00,75.3,68.0,30.10,NE,45,10.0,10.0,78,0.00,FEW,,0.00,WeatherDisplay:10.37,2013-08-20 02:06:00,
2013-08-20 04:11:00,75.3,68.0,30.10,ENE,76,10.0,10.0,78,0.00,FEW,,0.00,WeatherDisplay:10.37,2013-08-20 02:11:00,
2013-08-20 04:16:00,75.2,67.9,30.10,NE,40,8.0,8.0,78,0.00,FEW,,0.00,WeatherDisplay:10.37,2013-08-20 02:16:00,
2013-08-20 04:21:00,75.1,67.8,30.10,NNE,18,11.5,11.5,78,0.00,FEW,,0.00,WeatherDisplay:10.37,2013-08-20 02:21:00,
2013-08-20 04:26:00,75.1,67.8,30.10,North,359,15.0,15.0,78,0.00,FEW,,0.00,WeatherDisplay:10.37,2013-08-20 02:26:00,
2013-08-20 04:31:00,74.9,67.9,30.10,NNE,33,11.5,11.5,79,0.00,FEW,,0.00,WeatherDisplay:10.37,2013-08-20 02:31:00,
2013-08-20 04:36:00,74.8,67.8,30.10,NNE,28,10.4,10.4,79,0.00,FEW,,0.00,WeatherDisplay:10.37,2013-08-20 02:36:00,
2013-08-20 04:41:00,74.7,68.1,30.10,NNE,33,11.5,11.5,80,0.00,FEW,,0.00,WeatherDisplay:10.37,2013-08-20 02:41:00,
2013-08-20 04:46:00,74.6,68.0,30.10,NNE,13,16.1,16.1,80,0.00,FEW,,0.00,WeatherDisplay:10.37,2013-08-20 02:46:00,
2013-08-20 04:51:00,74.4,67.8,30.10,North,10,12.7,12.7,80,0.00,FEW,,0.00,WeatherDisplay:10.37,2013-08-20 02:51:00,
2013-08-20 04:56:00,74.3,67.4,30.09,North,4,15.0,15.0,79,0.00,FEW,,0.00,WeatherDisplay:10.37,2013-08-20 02:56:00,
2013-08-20 05:01:00,74.2,67.3,30.09,North,8,12.0,12.0,79,0.00,FEW,,0.00,WeatherDisplay:10.37,2013-08-20 03:01:00,
2013-08-20 05:06:00,74.2,67.3,30.09,NNE,33,15.0,15.0,79,0.00,FEW,,0.00,WeatherDisplay:10.37,2013-08-20 03:06:00,
2013-08-20 05:11:00,74.1,67.2,30.09,NNE,18,12.0,12.0,79,0.00,FEW,,0.00,WeatherDisplay:10.37,2013-08-20 03:11:00,
2013-08-20 05:16:00,74.0,67.1,30.09,NNE,18,17.3,17.3,79,0.00,FEW,,0.00,WeatherDisplay:10.37,2013-08-20 03:16:00,
2013-08-20 05:21:00,73.9,67.0,30.09,North,359,12.7,12.7,79,0.00,FEW,,0.00,WeatherDisplay:10.37,2013-08-20 03:21:00,
2013-08-20 05:26:00,73.8,66.9,30.09,NE,52,16.1,16.1,79,0.00,FEW,,0.00,WeatherDisplay:10.37,2013-08-20 03:26:00,
2013-08-20 05:31:00,73.7,66.4,30.09,NE,37,17.3,17.3,78,0.00,FEW,,0.00,WeatherDisplay:10.37,2013-08-20 03:31:00,
2013-08-20 05:36:00,73.6,65.9,30.09,NE,42,18.4,18.4,77,0.00,FEW,,0.00,WeatherDisplay:10.37,2013-08-20 03:36:00,
2013-08-20 05:41:00,73.5,65.8,30.09,NE,45,15.0,15.0,77,0.00,FEW,,0.00,WeatherDisplay:10.37,2013-08-20 03:41:00,
2013-08-20 05:46:00,73.4,65.7,30.09,NE,41,12.7,12.7,77,0.00,FEW,,0.00,WeatherDisplay:10.37,2013-08-20 03:46:00,
2013-08-20 05:51:00,73.5,65.5,30.09,NE,46,19.6,19.6,76,0.00,FEW,,0.00,WeatherDisplay:10.37,2013-08-20 03:51:00,
2013-08-20 05:56:00,73.6,65.6,30.09,North,4,21.9,21.9,76,0.00,FEW,,0.00,WeatherDisplay:10.37,2013-08-20 03:56:00,
2013-08-20 06:01:00,73.5,65.5,30.09,NE,45,13.8,13.8,76,0.00,FEW,,0.00,WeatherDisplay:10.37,2013-08-20 04:01:00,
2013-08-20 06:06:00,73.5,65.5,30.09,NNE,22,13.8,13.8,76,0.00,FEW,,0.00,WeatherDisplay:10.37,2013-08-20 04:06:00,
2013-08-20 06:11:00,73.5,65.1,30.09,NE,50,19.6,19.6,75,0.00,FEW,,0.00,WeatherDisplay:10.37,2013-08-20 04:11:00,
2013-08-20 06:16:00,73.4,65.0,30.09,NE,39,15.0,15.0,75,0.00,FEW,,0.00,WeatherDisplay:10.37,2013-08-20 04:16:00,
2013-08-20 06:21:00,73.4,65.0,30.09,NE,54,17.3,17.3,75,0.00,FEW,,0.00,WeatherDisplay:10.37,2013-08-20 04:21:00,
2013-08-20 06:26:00,73.3,64.5,30.09,NE,41,15.0,15.0,74,0.00,FEW,,0.00,WeatherDisplay:10.37,2013-08-20 04:26:00,
2013-08-20 06:31:00,73.2,64.4,30.10,NE,52,17.3,17.3,74,0.00,FEW,,0.00,WeatherDisplay:10.37,2013-08-20 04:31:00,
2013-08-20 06:36:00,73.2,64.0,30.10,NE,55,12.7,12.7,73,0.00,FEW,,0.00,WeatherDisplay:10.37,2013-08-20 04:36:00,
2013-08-20 06:41:00,73.2,64.0,30.09,NE,39,15.0,15.0,73,0.00,FEW,,0.00,WeatherDisplay:10.37,2013-08-20 04:41:00,
2013-08-20 06:46:00,73.1,63.5,30.09,NE,37,14.0,14.0,72,0.00,FEW,,0.00,WeatherDisplay:10.37,2013-08-20 04:46:00,
2013-08-20 06:51:00,73.1,63.5,30.10,NE,34,16.1,16.1,72,0.00,FEW,,0.00,WeatherDisplay:10.37,2013-08-20 04:51:00,
2013-08-20 06:56:00,73.0,63.4,30.09,NE,50,10.4,10.4,72,0.00,FEW,,0.00,WeatherDisplay:10.37,2013-08-20 04:56:00,
2013-08-20 07:01:00,73.0,63.8,30.10,NE,49,12.7,12.7,73,0.00,FEW,,0.00,WeatherDisplay:10.37,2013-08-20 05:01:00,
2013-08-20 07:06:00,72.9,63.7,30.10,NNE,25,12.0,12.0,73,0.00,FEW,,0.00,WeatherDisplay:10.37,2013-08-20 05:06:00,
2013-08-20 07:11:00,72.9,63.7,30.10,NNE,16,11.5,11.5,73,0.00,FEW,,0.00,WeatherDisplay:10.37,2013-08-20 05:11:00,
2013-08-20 07:16:00,72.8,63.6,30.10,NE,37,12.7,12.7,73,0.00,FEW,,0.00,WeatherDisplay:10.37,2013-08-20 05:16:00,
2013-08-20 07:21:00,72.8,63.6,30.10,NNE,24,13.0,13.0,73,0.00,FEW,,0.00,WeatherDisplay:10.37,2013-08-20 05:21:00,
2013-08-20 07:26:00,72.8,63.6,30.10,NNE,12,11.5,11.5,73,0.00,FEW,,0.00,WeatherDisplay:10.37,2013-08-20 05:26:00,
2013-08-20 07:31:00,72.9,63.7,30.10,NNE,23,11.0,11.0,73,0.00,FEW,,0.00,WeatherDisplay:10.37,2013-08-20 05:31:00,
2013-08-20 07:36:00,73.1,63.9,30.10,North,354,10.4,10.4,73,0.00,FEW,,0.00,WeatherDisplay:10.37,2013-08-20 05:36:00,
2013-08-20 07:41:00,73.2,64.0,30.10,NE,43,15.0,15.0,73,0.00,FEW,,0.00,WeatherDisplay:10.37,2013-08-20 05:41:00,
2013-08-20 07:46:00,73.4,64.2,30.10,NNE,19,12.0,12.0,73,0.00,FEW,,0.00,WeatherDisplay:10.37,2013-08-20 05:46:00,
2013-08-20 07:51:00,73.5,64.3,30.11,NNE,28,10.4,10.4,73,0.00,FEW,,0.00,WeatherDisplay:10.37,2013-08-20 05:51:00,
2013-08-20 07:56:00,73.5,63.9,30.11,NE,41,13.8,13.8,72,0.00,FEW,,0.00,WeatherDisplay:10.37,2013-08-20 05:56:00,
2013-08-20 08:01:00,73.7,64.1,30.11,NE,44,14.0,14.0,72,0.00,FEW,,0.00,WeatherDisplay:10.37,2013-08-20 06:01:00,
2013-08-20 08:06:00,73.7,64.1,30.11,NE,37,10.4,10.4,72,0.00,FEW,,0.00,WeatherDisplay:10.37,2013-08-20 06:06:00,
2013-08-20 08:11:00,73.7,63.7,30.11,North,359,11.5,11.5,71,0.00,FEW,,0.00,WeatherDisplay:10.37,2013-08-20 06:11:00,
2013-08-20 08:16:00,73.9,63.9,30.11,NNE,26,15.0,15.0,71,0.00,FEW,,0.00,WeatherDisplay:10.37,2013-08-20 06:16:00,
2013-08-20 08:21:00,74.0,63.6,30.11,NE,43,18.4,18.4,70,0.00,FEW,,0.00,WeatherDisplay:10.37,2013-08-20 06:21:00,
2013-08-20 08:26:00,74.0,63.2,30.12,NE,39,19.6,19.6,69,0.00,FEW,,0.00,WeatherDisplay:10.37,2013-08-20 06:26:00,
2013-08-20 08:31:00,74.1,63.3,30.12,NE,38,18.4,18.4,69,0.00,FEW,,0.00,WeatherDisplay:10.37,2013-08-20 06:31:00,
2013-08-20 08:36:00,74.1,63.3,30.12,NE,52,12.7,12.7,69,0.00,FEW,,0.00,WeatherDisplay:10.37,2013-08-20 06:36:00,
2013-08-20 08:41:00,74.1,63.3,30.12,NE,52,18.4,18.4,69,0.00,FEW,,0.00,WeatherDisplay:10.37,2013-08-20 06:41:00,
2013-08-20 08:46:00,74.0,63.2,30.12,NE,45,17.3,17.3,69,0.00,FEW,,0.00,WeatherDisplay:10.37,2013-08-20 06:46:00,
2013-08-20 08:51:00,74.1,63.3,30.12,ENE,58,16.1,16.1,69,0.00,FEW,,0.00,WeatherDisplay:10.37,2013-08-20 06:51:00,
2013-08-20 08:56:00,74.6,63.3,30.12,NE,54,16.1,16.1,68,0.00,FEW,,0.00,WeatherDisplay:10.37,2013-08-20 06:56:00,
2013-08-20 09:01:00,74.7,63.4,30.12,NE,41,16.1,16.1,68,0.00,FEW,,0.00,WeatherDisplay:10.37,2013-08-20 07:01:00,
2013-08-20 09:06:00,74.7,63.0,30.12,NE,54,20.7,20.7,67,0.00,FEW,,0.00,WeatherDisplay:10.37,2013-08-20 07:06:00,
2013-08-20 09:11:00,74.8,62.7,30.12,NE,43,23.0,23.0,66,0.00,FEW,,0.00,WeatherDisplay:10.37,2013-08-20 07:11:00,
2013-08-20 09:16:00,75.0,62.9,30.12,ENE,62,13.8,13.8,66,0.00,FEW,,0.00,WeatherDisplay:10.37,2013-08-20 07:16:00,
2013-08-20 09:21:00,75.3,63.2,30.12,NE,49,12.7,12.7,66,0.00,FEW,,0.00,WeatherDisplay:10.37,2013-08-20 07:21:00,
2013-08-20 09:26:00,76.0,62.9,30.12,ENE,60,14.0,14.0,64,0.00,FEW,,0.00,WeatherDisplay:10.37,2013-08-20 07:26:00,
2013-08-20 09:31:00,75.6,62.1,30.12,NE,34,17.3,17.3,63,0.00,FEW,,0.00,WeatherDisplay:10.37,2013-08-20 07:31:00,
2013-08-20 09:36:00,75.9,62.4,30.12,NE,51,18.4,18.4,63,0.00,FEW,,0.00,WeatherDisplay:10.37,2013-08-20 07:36:00,
2013-08-20 09:41:00,75.9,61.5,30.12,NE,54,19.6,19.6,61,0.00,FEW,,0.00,WeatherDisplay:10.37,2013-08-20 07:41:00,
2013-08-20 09:46:00,76.3,61.9,30.12,NNE,21,17.3,17.3,61,0.00,FEW,,0.00,WeatherDisplay:10.37,2013-08-20 07:46:00,
2013-08-20 09:51:00,77.0,61.1,30.12,NE,52,19.6,19.6,58,0.00,FEW,,0.00,WeatherDisplay:10.37,2013-08-20 07:51:00,
2013-08-20 09:56:00,76.3,60.4,30.12,NE,40,21.9,21.9,58,0.00,FEW,,0.00,WeatherDisplay:10.37,2013-08-20 07:56:00,
2013-08-20 10:01:00,76.3,59.9,30.12,ENE,62,20.7,20.7,57,0.00,FEW,,0.00,WeatherDisplay:10.37,2013-08-20 08:01:00,
2013-08-20 10:06:00,76.8,60.4,30.12,North,354,13.8,13.8,57,0.00,FEW,,0.00,WeatherDisplay:10.37,2013-08-20 08:06:00,
2013-08-20 10:11:00,77.1,60.2,30.12,NNE,16,19.6,19.6,56,0.00,FEW,,0.00,WeatherDisplay:10.37,2013-08-20 08:11:00,
2013-08-20 10:16:00,77.0,60.1,30.12,NNE,29,19.0,19.0,56,0.00,FEW,,0.00,WeatherDisplay:10.37,2013-08-20 08:16:00,
2013-08-20 10:21:00,76.6,60.2,30.11,NE,43,20.7,20.7,57,0.00,FEW,,0.00,WeatherDisplay:10.37,2013-08-20 08:21:00,
2013-08-20 10:26:00,77.2,61.3,30.11,East,81,17.3,17.3,58,0.00,FEW,,0.00,WeatherDisplay:10.37,2013-08-20 08:26:00,
2013-08-20 10:31:00,77.5,61.1,30.11,NE,49,15.0,15.0,57,0.00,FEW,,0.00,WeatherDisplay:10.37,2013-08-20 08:31:00,
2013-08-20 10:36:00,78.2,61.7,30.12,East,95,12.7,12.7,57,0.00,FEW,,0.00,WeatherDisplay:10.37,2013-08-20 08:36:00,
2013-08-20 10:41:00,77.6,60.2,30.12,ENE,58,19.6,19.6,55,0.00,FEW,,0.00,WeatherDisplay:10.37,2013-08-20 08:41:00,
2013-08-20 10:46:00,77.7,60.2,30.12,NE,55,18.4,18.4,55,0.00,FEW,,0.00,WeatherDisplay:10.37,2013-08-20 08:46:00,
2013-08-20 10:51:00,77.6,60.7,30.12,ENE,78,18.4,18.4,56,0.00,FEW,,0.00,WeatherDisplay:10.37,2013-08-20 08:51:00,
2013-08-20 10:56:00,78.1,61.1,30.12,ENE,63,17.3,17.3,56,0.00,FEW,,0.00,WeatherDisplay:10.37,2013-08-20 08:56:00,
2013-08-20 11:01:00,78.3,61.3,30.12,ENE,63,20.7,20.7,56,0.00,FEW,,0.00,WeatherDisplay:10.37,2013-08-20 09:01:00,
2013-08-20 11:06:00,77.9,60.9,30.12,ENE,74,19.6,19.6,56,0.00,FEW,,0.00,WeatherDisplay:10.37,2013-08-20 09:06:00,
2013-08-20 11:11:00,78.2,61.2,30.12,ENE,77,19.6,19.6,56,0.00,FEW,,0.00,WeatherDisplay:10.37,2013-08-20 09:11:00,
2013-08-20 11:16:00,78.5,61.0,30.12,NE,41,17.3,17.3,55,0.00,FEW,,0.00,WeatherDisplay:10.37,2013-08-20 09:16:00,
2013-08-20 11:21:00,78.2,60.7,30.12,ENE,63,26.5,26.5,55,0.00,FEW,,0.00,WeatherDisplay:10.37,2013-08-20 09:21:00,
2013-08-20 11:26:00,78.0,61.0,30.12,ENE,66,17.3,17.3,56,0.00,FEW,,0.00,WeatherDisplay:10.37,2013-08-20 09:26:00,
2013-08-20 11:31:00,78.4,61.4,30.12,East,82,18.4,18.4,56,0.00,FEW,,0.00,WeatherDisplay:10.37,2013-08-20 09:31:00,
2013-08-20 11:36:00,78.8,61.3,30.12,East,84,15.0,15.0,55,0.00,FEW,,0.00,WeatherDisplay:10.37,2013-08-20 09:36:00,
2013-08-20 11:41:00,79.1,61.0,30.12,ENE,77,21.9,21.9,54,0.00,FEW,,0.00,WeatherDisplay:10.37,2013-08-20 09:41:00,
2013-08-20 11:46:00,79.1,61.5,30.12,East,82,23.0,23.0,55,0.00,FEW,,0.00,WeatherDisplay:10.37,2013-08-20 09:46:00,
2013-08-20 11:51:00,78.6,61.6,30.12,East,79,21.9,21.9,56,0.00,FEW,,0.00,WeatherDisplay:10.37,2013-08-20 09:51:00,
2013-08-20 11:56:00,78.3,61.3,30.12,NE,34,23.0,23.0,56,0.00,FEW,,0.00,WeatherDisplay:10.37,2013-08-20 09:56:00,
2013-08-20 12:01:00,79.1,61.5,30.12,ENE,64,18.4,18.4,55,0.00,FEW,,0.00,WeatherDisplay:10.37,2013-08-20 10:01:00,
2013-08-20 12:06:00,79.3,61.7,30.12,East,90,19.6,19.6,55,0.00,FEW,,0.00,WeatherDisplay:10.37,2013-08-20 10:06:00,
2013-08-20 12:11:00,80.0,62.4,30.12,NE,52,13.8,13.8,55,0.00,FEW,,0.00,WeatherDisplay:10.37,2013-08-20 10:11:00,
2013-08-20 12:16:00,79.3,62.2,30.11,ESE,106,18.4,18.4,56,0.00,FEW,,0.00,WeatherDisplay:10.37,2013-08-20 10:16:00,
2013-08-20 12:21:00,79.0,62.0,30.11,NE,50,21.9,21.9,56,0.00,FEW,,0.00,WeatherDisplay:10.37,2013-08-20 10:21:00,
2013-08-20 12:26:00,79.0,62.5,30.11,NE,34,17.3,17.3,57,0.00,FEW,,0.00,WeatherDisplay:10.37,2013-08-20 10:26:00,
2013-08-20 12:31:00,80.2,62.0,30.11,ENE,62,18.4,18.4,54,0.00,FEW,,0.00,WeatherDisplay:10.37,2013-08-20 10:31:00,
2013-08-20 12:36:00,79.4,61.3,30.11,ENE,68,22.0,22.0,54,0.00,FEW,,0.00,WeatherDisplay:10.37,2013-08-20 10:36:00,
2013-08-20 12:41:00,79.0,61.5,30.11,ENE,60,20.7,20.7,55,0.00,FEW,,0.00,WeatherDisplay:10.37,2013-08-20 10:41:00,
2013-08-20 12:46:00,79.0,61.5,30.11,ENE,73,20.7,20.7,55,0.00,FEW,,0.00,WeatherDisplay:10.37,2013-08-20 10:46:00,
2013-08-20 12:51:00,79.0,60.9,30.11,NE,54,16.1,16.1,54,0.00,FEW,,0.00,WeatherDisplay:10.37,2013-08-20 10:51:00,
2013-08-20 12:56:00,79.6,61.0,30.11,ENE,71,19.6,19.6,53,0.00,FEW,,0.00,WeatherDisplay:10.37,2013-08-20 10:56:00,
2013-08-20 13:01:00,80.2,61.5,30.11,ENE,68,22.0,22.0,53,0.00,FEW,,0.00,WeatherDisplay:10.37,2013-08-20 11:01:00,
2013-08-20 13:06:00,79.9,60.7,30.11,East,89,19.6,19.6,52,0.00,FEW,,0.00,WeatherDisplay:10.37,2013-08-20 11:06:00,
2013-08-20 13:11:00,79.4,60.2,30.11,ENE,62,18.4,18.4,52,0.00,FEW,,0.00,WeatherDisplay:10.37,2013-08-20 11:11:00,
2013-08-20 13:16:00,79.5,60.3,30.11,East,85,23.0,23.0,52,0.00,FEW,,0.00,WeatherDisplay:10.37,2013-08-20 11:16:00,
2013-08-20 13:21:00,79.0,59.9,30.11,NE,48,12.7,12.7,52,0.00,FEW,,0.00,WeatherDisplay:10.37,2013-08-20 11:21:00,
2013-08-20 13:26:00,79.6,60.4,30.11,ENE,75,13.8,13.8,52,0.00,FEW,,0.00,WeatherDisplay:10.37,2013-08-20 11:26:00,
2013-08-20 13:31:00,80.8,60.4,30.11,NNE,14,12.0,12.0,50,0.00,FEW,,0.00,WeatherDisplay:10.37,2013-08-20 11:31:00,
2013-08-20 13:36:00,80.7,59.8,30.11,NE,34,17.3,17.3,49,0.00,FEW,,0.00,WeatherDisplay:10.37,2013-08-20 11:36:00,
2013-08-20 13:41:00,80.5,60.1,30.11,NNW,343,13.8,13.8,50,0.00,FEW,,0.00,WeatherDisplay:10.37,2013-08-20 11:41:00,
2013-08-20 13:46:00,80.2,59.9,30.11,North,4,16.1,16.1,50,0.00,FEW,,0.00,WeatherDisplay:10.37,2013-08-20 11:46:00,
2013-08-20 13:51:00,79.7,59.4,30.11,North,354,18.4,18.4,50,0.00,FEW,,0.00,WeatherDisplay:10.37,2013-08-20 11:51:00,
2013-08-20 13:56:00,80.6,59.7,30.11,NNE,13,18.0,18.0,49,0.00,FEW,,0.00,WeatherDisplay:10.37,2013-08-20 11:56:00,
2013-08-20 14:01:00,81.0,60.0,30.11,NNE,33,17.3,17.3,49,0.00,FEW,,0.00,WeatherDisplay:10.37,2013-08-20 12:01:00,
2013-08-20 14:06:00,80.1,60.3,30.11,ESE,112,16.1,16.1,51,0.00,FEW,,0.00,WeatherDisplay:10.37,2013-08-20 12:06:00,
2013-08-20 14:11:00,80.7,59.8,30.11,North,349,13.8,13.8,49,0.00,FEW,,0.00,WeatherDisplay:10.37,2013-08-20 12:11:00,
2013-08-20 14:16:00,80.8,59.3,30.11,North,349,19.6,19.6,48,0.00,FEW,,0.00,WeatherDisplay:10.37,2013-08-20 12:16:00,
2013-08-20 14:21:00,81.4,59.2,30.11,NNW,345,9.2,9.2,47,0.00,FEW,,0.00,WeatherDisplay:10.37,2013-08-20 12:21:00,
2013-08-20 14:26:00,81.8,59.6,30.10,NW,316,15.0,15.0,47,0.00,FEW,,0.00,WeatherDisplay:10.37,2013-08-20 12:26:00,
2013-08-20 14:31:00,81.1,59.0,30.11,North,8,12.7,12.7,47,0.00,FEW,,0.00,WeatherDisplay:10.37,2013-08-20 12:31:00,
2013-08-20 14:36:00,81.7,59.5,30.10,NW,308,11.5,11.5,47,0.00,FEW,,0.00,WeatherDisplay:10.37,2013-08-20 12:36:00,
2013-08-20 14:41:00,81.5,59.3,30.10,North,359,19.0,19.0,47,0.00,FEW,,0.00,WeatherDisplay:10.37,2013-08-20 12:41:00,
2013-08-20 14:46:00,80.8,59.3,30.10,NNE,14,15.0,15.0,48,0.00,SCT,,0.00,WeatherDisplay:10.37,2013-08-20 12:46:00,
2013-08-20 14:51:00,80.7,58.6,30.10,NNW,334,20.7,20.7,47,0.00,SCT,,0.00,WeatherDisplay:10.37,2013-08-20 12:51:00,
2013-08-20 14:56:00,80.5,59.0,30.10,North,354,19.6,19.6,48,0.00,SCT,,0.00,WeatherDisplay:10.37,2013-08-20 12:56:00,
2013-08-20 15:01:00,81.0,59.5,30.10,North,11,13.8,13.8,48,0.00,SCT,,0.00,WeatherDisplay:10.37,2013-08-20 13:01:00,
2013-08-20 15:06:00,80.9,59.4,30.10,NW,316,16.0,16.0,48,0.00,SCT,,0.00,WeatherDisplay:10.37,2013-08-20 13:06:00,
2013-08-20 15:11:00,80.6,59.1,30.10,NW,321,19.6,19.6,48,0.00,SCT,,0.00,WeatherDisplay:10.37,2013-08-20 13:11:00,
2013-08-20 15:16:00,80.7,59.2,30.09,North,4,18.4,18.4,48,0.00,FEW,,0.00,WeatherDisplay:10.37,2013-08-20 13:16:00,
2013-08-20 15:21:00,80.8,59.3,30.09,North,359,15.0,15.0,48,0.00,FEW,,0.00,WeatherDisplay:10.37,2013-08-20 13:21:00,
2013-08-20 15:26:00,80.8,59.3,30.09,North,4,19.6,19.6,48,0.00,FEW,,0.00,WeatherDisplay:10.37,2013-08-20 13:26:00,
2013-08-20 15:31:00,80.3,58.8,30.09,North,349,19.6,19.6,48,0.00,FEW,,0.00,WeatherDisplay:10.37,2013-08-20 13:31:00,
2013-08-20 15:36:00,80.2,58.7,30.09,NE,47,16.1,16.1,48,0.00,FEW,,0.00,WeatherDisplay:10.37,2013-08-20 13:36:00,
2013-08-20 15:41:00,80.3,59.4,30.09,North,354,17.3,17.3,49,0.00,FEW,,0.00,WeatherDisplay:10.37,2013-08-20 13:41:00,
2013-08-20 15:46:00,79.8,59.5,30.09,NNE,21,12.7,12.7,50,0.00,SCT,,0.00,WeatherDisplay:10.37,2013-08-20 13:46:00,
2013-08-20 15:51:00,80.0,59.7,30.09,NNW,345,17.0,17.0,50,0.00,SCT,,0.00,WeatherDisplay:10.37,2013-08-20 13:51:00,
2013-08-20 15:56:00,79.8,59.5,30.09,North,354,18.4,18.4,50,0.00,SCT,,0.00,WeatherDisplay:10.37,2013-08-20 13:56:00,
2013-08-20 16:01:00,80.0,59.1,30.08,NNW,341,20.7,20.7,49,0.00,SCT,,0.00,WeatherDisplay:10.37,2013-08-20 14:01:00,
2013-08-20 16:06:00,80.4,59.5,30.09,North,8,14.0,14.0,49,0.00,SCT,,0.00,WeatherDisplay:10.37,2013-08-20 14:06:00,
2013-08-20 16:11:00,80.7,59.2,30.09,NNW,347,13.8,13.8,48,0.00,SCT,,0.00,WeatherDisplay:10.37,2013-08-20 14:11:00,
2013-08-20 16:16:00,80.6,59.1,30.08,North,354,18.4,18.4,48,0.00,BKN,,0.00,WeatherDisplay:10.37,2013-08-20 14:16:00,
2013-08-20 16:21:00,80.3,59.4,30.08,North,354,19.6,19.6,49,0.00,BKN,,0.00,WeatherDisplay:10.37,2013-08-20 14:21:00,
2013-08-20 16:26:00,80.2,59.3,30.08,NE,56,12.7,12.7,49,0.00,BKN,,0.00,WeatherDisplay:10.37,2013-08-20 14:26:00,
2013-08-20 16:31:00,80.1,59.2,30.08,North,4,21.9,21.9,49,0.00,BKN,,0.00,WeatherDisplay:10.37,2013-08-20 14:31:00,
2013-08-20 16:36:00,79.4,59.1,30.08,NW,319,18.4,18.4,50,0.00,BKN,,0.00,WeatherDisplay:10.37,2013-08-20 14:36:00,
2013-08-20 16:41:00,79.4,59.1,30.08,NNW,339,11.5,11.5,50,0.00,BKN,,0.00,WeatherDisplay:10.37,2013-08-20 14:41:00,
2013-08-20 16:46:00,79.4,59.1,30.08,NW,313,19.6,19.6,50,0.00,BKN,,0.00,WeatherDisplay:10.37,2013-08-20 14:46:00,
2013-08-20 16:51:00,79.2,59.0,30.08,NNE,14,9.2,9.2,50,0.00,BKN,,0.00,WeatherDisplay:10.37,2013-08-20 14:51:00,
2013-08-20 16:56:00,79.9,59.0,30.07,North,4,13.8,13.8,49,0.00,BKN,,0.00,WeatherDisplay:10.37,2013-08-20 14:56:00,
2013-08-20 17:01:00,79.8,58.9,30.08,North,4,17.3,17.3,49,0.00,BKN,,0.00,WeatherDisplay:10.37,2013-08-20 15:01:00,
2013-08-20 17:06:00,79.7,59.4,30.07,NNE,16,15.0,15.0,50,0.00,BKN,,0.00,WeatherDisplay:10.37,2013-08-20 15:06:00,
2013-08-20 17:11:00,79.7,58.8,30.07,NNE,16,14.0,14.0,49,0.00,BKN,,0.00,WeatherDisplay:10.37,2013-08-20 15:11:00,
2013-08-20 17:16:00,80.0,58.5,30.07,North,4,15.0,15.0,48,0.00,BKN,,0.00,WeatherDisplay:10.37,2013-08-20 15:16:00,
2013-08-20 17:21:00,79.9,59.0,30.07,North,354,15.0,15.0,49,0.00,BKN,,0.00,WeatherDisplay:10.37,2013-08-20 15:21:00,
2013-08-20 17:26:00,79.9,59.0,30.07,North,4,18.4,18.4,49,0.00,BKN,,0.00,WeatherDisplay:10.37,2013-08-20 15:26:00,
2013-08-20 17:31:00,80.2,58.7,30.07,NNE,22,18.4,18.4,48,0.00,BKN,,0.00,WeatherDisplay:10.37,2013-08-20 15:31:00,
2013-08-20 17:36:00,80.2,58.7,30.07,NNW,335,19.6,19.6,48,0.00,BKN,,0.00,WeatherDisplay:10.37,2013-08-20 15:36:00,
2013-08-20 17:41:00,78.9,58.7,30.07,North,354,18.4,18.4,50,0.00,BKN,,0.00,WeatherDisplay:10.37,2013-08-20 15:41:00,
2013-08-20 17:46:00,78.5,58.3,30.07,NNE,12,19.6,19.6,50,0.00,BKN,,0.00,WeatherDisplay:10.37,2013-08-20 15:46:00,
2013-08-20 17:51:00,78.4,58.2,30.07,NNW,333,15.0,15.0,50,0.00,BKN,,0.00,WeatherDisplay:10.37,2013-08-20 15:51:00,
2013-08-20 17:56:00,79.1,58.9,30.07,NE,50,11.5,11.5,50,0.00,BKN,,0.00,WeatherDisplay:10.37,2013-08-20 15:56:00,
2013-08-20 18:01:00,79.4,59.1,30.07,NNW,328,11.5,11.5,50,0.00,BKN,,0.00,WeatherDisplay:10.37,2013-08-20 16:01:00,
2013-08-20 18:06:00,79.9,59.0,30.07,NNE,30,15.0,15.0,49,0.00,BKN,,0.00,WeatherDisplay:10.37,2013-08-20 16:06:00,
2013-08-20 18:11:00,79.8,58.9,30.07,North,354,16.0,16.0,49,0.00,BKN,,0.00,WeatherDisplay:10.37,2013-08-20 16:11:00,
2013-08-20 18:16:00,79.3,58.5,30.07,North,10,21.9,21.9,49,0.00,BKN,,0.00,WeatherDisplay:10.37,2013-08-20 16:16:00,
2013-08-20 18:21:00,78.6,59.0,30.07,North,4,18.4,18.4,51,0.00,BKN,,0.00,WeatherDisplay:10.37,2013-08-20 16:21:00,
2013-08-20 18:26:00,78.9,59.2,30.07,North,8,12.7,12.7,51,0.00,BKN,,0.00,WeatherDisplay:10.37,2013-08-20 16:26:00,
2013-08-20 18:31:00,78.7,59.0,30.07,North,354,19.6,19.6,51,0.00,BKN,,0.00,WeatherDisplay:10.37,2013-08-20 16:31:00,
2013-08-20 18:36:00,78.3,59.2,30.07,NNW,332,19.6,19.6,52,0.00,BKN,,0.00,WeatherDisplay:10.37,2013-08-20 16:36:00,
2013-08-20 18:41:00,78.8,59.1,30.07,North,349,13.8,13.8,51,0.00,BKN,,0.00,WeatherDisplay:10.37,2013-08-20 16:41:00,
2013-08-20 18:46:00,78.1,59.6,30.08,North,350,13.8,13.8,53,0.00,SCT,,0.00,WeatherDisplay:10.37,2013-08-20 16:46:00,
2013-08-20 18:51:00,78.4,59.3,30.07,North,354,17.3,17.3,52,0.00,SCT,,0.00,WeatherDisplay:10.37,2013-08-20 16:51:00,
2013-08-20 18:56:00,78.3,59.8,30.07,North,8,17.3,17.3,53,0.00,SCT,,0.00,WeatherDisplay:10.37,2013-08-20 16:56:00,
2013-08-20 19:01:00,78.0,59.5,30.08,NNW,341,15.0,15.0,53,0.00,SCT,,0.00,WeatherDisplay:10.37,2013-08-20 17:01:00,
2013-08-20 19:06:00,78.0,59.5,30.07,North,354,17.3,17.3,53,0.00,SCT,,0.00,WeatherDisplay:10.37,2013-08-20 17:06:00,
2013-08-20 19:11:00,78.0,60.0,30.07,North,359,15.0,15.0,54,0.00,SCT,,0.00,WeatherDisplay:10.37,2013-08-20 17:11:00,
2013-08-20 19:16:00,77.7,59.7,30.07,North,354,18.4,18.4,54,0.00,SCT,,0.00,WeatherDisplay:10.37,2013-08-20 17:16:00,
2013-08-20 19:21:00,77.4,59.5,30.07,North,354,17.3,17.3,54,0.00,SCT,,0.00,WeatherDisplay:10.37,2013-08-20 17:21:00,
2013-08-20 19:26:00,77.2,59.8,30.08,North,8,18.4,18.4,55,0.00,SCT,,0.00,WeatherDisplay:10.37,2013-08-20 17:26:00,
2013-08-20 19:31:00,77.3,59.9,30.07,North,4,16.1,16.1,55,0.00,SCT,,0.00,WeatherDisplay:10.37,2013-08-20 17:31:00,
2013-08-20 19:36:00,77.2,59.8,30.08,North,10,19.6,19.6,55,0.00,SCT,,0.00,WeatherDisplay:10.37,2013-08-20 17:36:00,
2013-08-20 19:41:00,77.0,59.6,30.07,North,354,17.3,17.3,55,0.00,SCT,,0.00,WeatherDisplay:10.37,2013-08-20 17:41:00,
2013-08-20 19:46:00,76.8,59.4,30.08,North,359,15.0,15.0,55,0.00,FEW,,0.00,WeatherDisplay:10.37,2013-08-20 17:46:00,
2013-08-20 19:51:00,76.6,59.7,30.07,North,4,19.6,19.6,56,0.00,FEW,,0.00,WeatherDisplay:10.37,2013-08-20 17:51:00,
2013-08-20 19:56:00,76.5,59.6,30.07,NNW,336,11.5,11.5,56,0.00,FEW,,0.00,WeatherDisplay:10.37,2013-08-20 17:56:00,
2013-08-20 20:01:00,76.3,59.4,30.08,North,350,13.8,13.8,56,0.00,FEW,,0.00,WeatherDisplay:10.37,2013-08-20 18:01:00,
2013-08-20 20:06:00,76.0,59.7,30.08,North,4,13.8,13.8,57,0.00,FEW,,0.00,WeatherDisplay:10.37,2013-08-20 18:06:00,
2013-08-20 20:11:00,75.8,59.5,30.07,NNW,343,15.0,15.0,57,0.00,FEW,,0.00,WeatherDisplay:10.37,2013-08-20 18:11:00,
2013-08-20 20:16:00,75.5,59.7,30.08,NNW,347,17.3,17.3,58,0.00,FEW,,0.00,WeatherDisplay:10.37,2013-08-20 18:16:00,
2013-08-20 20:21:00,75.4,59.6,30.07,NNW,334,11.5,11.5,58,0.00,FEW,,0.00,WeatherDisplay:10.37,2013-08-20 18:21:00,
2013-08-20 20:26:00,75.2,59.4,30.08,North,11,9.2,9.2,58,0.00,FEW,,0.00,WeatherDisplay:10.37,2013-08-20 18:26:00,
2013-08-20 20:31:00,75.0,59.2,30.08,NE,34,12.7,12.7,58,0.00,FEW,,0.00,WeatherDisplay:10.37,2013-08-20 18:31:00,
2013-08-20 20:36:00,74.8,59.0,30.08,NNW,343,13.8,13.8,58,0.00,FEW,,0.00,WeatherDisplay:10.37,2013-08-20 18:36:00,
2013-08-20 20:41:00,74.7,59.4,30.08,North,354,13.8,13.8,59,0.00,FEW,,0.00,WeatherDisplay:10.37,2013-08-20 18:41:00,
2013-08-20 20:46:00,74.6,59.3,30.08,NNW,345,12.7,12.7,59,0.00,FEW,,0.00,WeatherDisplay:10.37,2013-08-20 18:46:00,
2013-08-20 20:51:00,74.5,59.2,30.08,North,354,13.0,13.0,59,0.00,FEW,,0.00,WeatherDisplay:10.37,2013-08-20 18:51:00,
2013-08-20 20:56:00,74.4,59.6,30.08,NNW,340,11.0,11.0,60,0.00,FEW,,0.00,WeatherDisplay:10.37,2013-08-20 18:56:00,
2013-08-20 21:01:00,74.2,59.4,30.08,North,359,11.5,11.5,60,0.00,FEW,,0.00,WeatherDisplay:10.37,2013-08-20 19:01:00,
2013-08-20 21:06:00,74.1,59.3,30.08,NNW,347,8.1,8.1,60,0.00,FEW,,0.00,WeatherDisplay:10.37,2013-08-20 19:06:00,
2013-08-20 21:11:00,74.0,59.2,30.08,North,8,9.2,9.2,60,0.00,FEW,,0.00,WeatherDisplay:10.37,2013-08-20 19:11:00,
2013-08-20 21:16:00,73.9,59.1,30.08,NNW,334,9.2,9.2,60,0.00,FEW,,0.00,WeatherDisplay:10.37,2013-08-20 19:16:00,
2013-08-20 21:21:00,73.8,59.0,30.09,North,10,10.4,10.4,60,0.00,FEW,,0.00,WeatherDisplay:10.37,2013-08-20 19:21:00,
2013-08-20 21:26:00,73.8,59.0,30.09,North,354,6.9,6.9,60,0.00,FEW,,0.00,WeatherDisplay:10.37,2013-08-20 19:26:00,
2013-08-20 21:31:00,73.7,58.9,30.09,NE,34,9.2,9.2,60,0.00,FEW,,0.00,WeatherDisplay:10.37,2013-08-20 19:31:00,
2013-08-20 21:36:00,73.6,58.9,30.10,NNE,25,8.1,8.1,60,0.00,FEW,,0.00,WeatherDisplay:10.37,2013-08-20 19:36:00,
2013-08-20 21:41:00,73.5,58.8,30.10,NNE,18,10.4,10.4,60,0.00,FEW,,0.00,WeatherDisplay:10.37,2013-08-20 19:41:00,
2013-08-20 21:46:00,73.5,58.8,30.10,North,10,9.2,9.2,60,0.00,FEW,,0.00,WeatherDisplay:10.37,2013-08-20 19:46:00,
2013-08-20 21:51:00,73.4,59.1,30.10,NNE,31,6.9,6.9,61,0.00,FEW,,0.00,WeatherDisplay:10.37,2013-08-20 19:51:00,
2013-08-20 21:56:00,73.4,58.7,30.10,NNE,29,11.5,11.5,60,0.00,FEW,,0.00,WeatherDisplay:10.37,2013-08-20 19:56:00,
2013-08-20 22:01:00,73.4,58.7,30.10,North,4,8.1,8.1,60,0.00,FEW,,0.00,WeatherDisplay:10.37,2013-08-20 20:01:00,
2013-08-20 22:06:00,73.3,58.6,30.10,North,10,10.0,10.0,60,0.00,FEW,,0.00,WeatherDisplay:10.37,2013-08-20 20:06:00,
2013-08-20 22:11:00,73.2,58.5,30.11,North,8,13.0,13.0,60,0.00,FEW,,0.00,WeatherDisplay:10.37,2013-08-20 20:11:00,
2013-08-20 22:16:00,73.2,58.5,30.11,North,354,10.4,10.4,60,0.00,FEW,,0.00,WeatherDisplay:10.37,2013-08-20 20:16:00,
2013-08-20 22:21:00,73.2,58.0,30.11,NNE,25,12.7,12.7,59,0.00,FEW,,0.00,WeatherDisplay:10.37,2013-08-20 20:21:00,
2013-08-20 22:26:00,73.2,58.0,30.11,NNE,12,11.5,11.5,59,0.00,FEW,,0.00,WeatherDisplay:10.37,2013-08-20 20:26:00,
2013-08-20 22:31:00,73.2,58.0,30.11,North,8,11.5,11.5,59,0.00,FEW,,0.00,WeatherDisplay:10.37,2013-08-20 20:31:00,
2013-08-20 22:36:00,73.2,58.0,30.11,North,4,11.5,11.5,59,0.00,FEW,,0.00,WeatherDisplay:10.37,2013-08-20 20:36:00,
2013-08-20 22:41:00,73.1,57.9,30.10,NNW,343,12.7,12.7,59,0.00,FEW,,0.00,WeatherDisplay:10.37,2013-08-20 20:41:00,
2013-08-20 22:46:00,73.0,57.8,30.11,NNW,342,11.5,11.5,59,0.00,FEW,,0.00,WeatherDisplay:10.37,2013-08-20 20:46:00,
2013-08-20 22:51:00,72.9,57.7,30.11,NNW,348,13.0,13.0,59,0.00,FEW,,0.00,WeatherDisplay:10.37,2013-08-20 20:51:00,
2013-08-20 22:56:00,72.8,57.6,30.11,NNW,338,10.4,10.4,59,0.00,FEW,,0.00,WeatherDisplay:10.37,2013-08-20 20:56:00,
2013-08-20 23:01:00,72.6,57.9,30.11,North,359,10.4,10.4,60,0.00,FEW,,0.00,WeatherDisplay:10.37,2013-08-20 21:01:00,
2013-08-20 23:06:00,72.4,57.7,30.11,NNW,345,9.2,9.2,60,0.00,FEW,,0.00,WeatherDisplay:10.37,2013-08-20 21:06:00,
2013-08-20 23:11:00,72.2,57.5,30.10,North,354,9.2,9.2,60,0.00,FEW,,0.00,WeatherDisplay:10.37,2013-08-20 21:11:00,
2013-08-20 23:16:00,72.2,57.5,30.10,NNW,339,11.5,11.5,60,0.00,FEW,,0.00,WeatherDisplay:10.37,2013-08-20 21:16:00,
2013-08-20 23:21:00,72.4,57.7,30.11,NNW,329,10.4,10.4,60,0.00,FEW,,0.00,WeatherDisplay:10.37,2013-08-20 21:21:00,
2013-08-20 23:26:00,72.4,57.7,30.11,NW,323,11.5,11.5,60,0.00,FEW,,0.00,WeatherDisplay:10.37,2013-08-20 21:26:00,
2013-08-20 23:31:00,72.5,57.8,30.11,NW,304,12.7,12.7,60,0.00,FEW,,0.00,WeatherDisplay:10.37,2013-08-20 21:31:00,
2013-08-20 23:36:00,72.6,57.9,30.10,NNW,338,11.5,11.5,60,0.00,FEW,,0.00,WeatherDisplay:10.37,2013-08-20 21:36:00,
2013-08-20 23:41:00,72.4,57.7,30.11,North,354,11.5,11.5,60,0.00,FEW,,0.00,WeatherDisplay:10.37,2013-08-20 21:41:00,
2013-08-20 23:46:00,72.1,57.9,30.11,NNW,327,11.5,11.5,61,0.00,FEW,,0.00,WeatherDisplay:10.37,2013-08-20 21:46:00,
2013-08-20 23:51:00,71.9,57.7,30.11,NNW,345,11.5,11.5,61,0.00,FEW,,0.00,WeatherDisplay:10.37,2013-08-20 21:51:00,
2013-08-20 23:56:00,71.8,57.6,30.11,NNW,340,11.5,11.5,61,0.00,FEW,,0.00,WeatherDisplay:10.37,2013-08-20 21:56:00,